.
WxDataArchive / Data Records for 2013-07-14
2013-07-13 July 2013 2013-07-15

Data Records for Sunday, 14 July 2013

Time	Temp	Chill	HIndex	Humid	Dewpt	 Wind 	HiWind	WindDir	Rain 	Barom 
-----	----	-----	------	-----	-----	------	------	-------	-----	----- 
00:00	72.0	72.0	72.0	83	66.5	1	3	90	0.00	30.158 
00:05	72.0	72.0	72.0	83	66.5	0	4	90	0.00	30.158 
00:10	72.0	72.0	72.0	83	66.5	0	3	90	0.00	30.158 
00:15	71.8	71.8	71.8	83	66.3	1	4	90	0.00	30.165 
00:20	71.6	71.6	71.6	84	66.5	1	3	90	0.00	30.165 
00:25	71.5	71.5	71.5	84	66.4	1	3	90	0.00	30.165 
00:30	71.3	71.3	71.3	85	66.5	1	2	90	0.00	30.166 
00:35	71.1	71.1	71.1	85	66.4	0	2	90	0.00	30.166 
00:40	70.8	70.8	70.8	86	66.4	1	3	90	0.00	30.166 
00:45	70.6	70.6	70.6	86	66.2	1	4	90	0.00	30.163 
00:50	70.4	70.4	70.4	87	66.3	1	3	90	0.00	30.163 
00:55	70.4	70.4	70.4	87	66.3	1	4	90	0.00	30.163 
01:00	70.3	70.3	70.3	87	66.2	1	3	90	0.00	30.159 
01:05	70.1	70.1	70.1	87	66.0	1	3	90	0.00	30.159 
01:10	69.9	69.9	69.9	88	66.2	0	2	90	0.00	30.159 
01:15	69.8	69.8	69.8	88	66.1	0	1	90	0.00	30.160 
01:20	69.6	69.6	69.6	88	65.9	0	1	90	0.00	30.160 
01:25	69.4	69.4	69.4	88	65.7	0	2	90	0.00	30.160 
01:30	69.4	69.4	69.4	88	65.7	1	3	90	0.00	30.155 
01:35	69.3	69.3	69.3	88	65.6	1	5	90	0.00	30.155 
01:40	69.3	69.3	69.3	88	65.6	0	1	90	0.00	30.155 
01:45	69.3	69.3	69.3	88	65.6	1	3	90	0.00	30.151 
01:50	69.1	69.1	69.1	88	65.4	0	3	90	0.00	30.151 
01:55	69.1	69.1	69.1	89	65.7	0	2	90	0.00	30.151 
02:00	69.1	69.1	69.1	89	65.7	0	3	90	0.00	30.151 
02:05	68.9	68.9	68.9	89	65.5	0	0	---	0.00	30.151 
02:10	68.9	68.9	68.9	89	65.5	0	1	90	0.00	30.151 
02:15	68.8	68.8	68.8	89	65.4	0	0	---	0.00	30.155 
02:20	68.6	68.6	68.6	89	65.2	0	1	90	0.00	30.155 
02:25	68.6	68.6	68.6	90	65.5	0	3	90	0.00	30.155 
02:30	68.4	68.4	68.4	90	65.3	1	2	90	0.00	30.153 
02:35	68.4	68.4	68.4	90	65.3	0	4	90	0.00	30.153 
02:40	68.3	68.3	68.3	90	65.2	0	1	90	0.00	30.153 
02:45	68.1	68.1	68.1	90	65.0	0	0	---	0.00	30.152 
02:50	67.9	67.9	67.9	90	64.9	0	2	90	0.00	30.152 
02:55	67.8	67.8	67.8	91	65.1	0	2	90	0.00	30.152 
03:00	67.8	67.8	67.8	91	65.1	0	1	90	0.00	30.151 
03:05	67.6	67.6	67.6	91	64.9	0	2	90	0.00	30.151 
03:10	67.6	67.6	67.6	91	64.9	0	3	90	0.00	30.151 
03:15	67.4	67.4	67.4	91	64.7	0	3	90	0.00	30.153 
03:20	67.4	67.4	67.4	91	64.7	0	2	90	0.00	30.153 
03:25	67.3	67.3	67.3	92	64.9	0	1	90	0.00	30.153 
03:30	67.1	67.1	67.1	92	64.7	0	1	90	0.00	30.153 
03:35	67.1	67.1	67.1	92	64.7	0	1	90	0.00	30.153 
03:40	66.9	66.9	66.9	92	64.5	0	0	---	0.00	30.153 
03:45	66.8	66.8	66.8	92	64.4	0	0	---	0.00	30.153 
03:50	66.8	66.8	66.8	92	64.4	0	0	---	0.00	30.153 
03:55	66.8	66.8	66.8	92	64.4	0	2	90	0.00	30.153 
04:00	66.8	66.8	66.8	92	64.4	0	1	90	0.00	30.153 
04:05	66.8	66.8	66.8	92	64.4	0	1	90	0.00	30.153 
04:10	66.6	66.6	66.6	92	64.2	0	1	90	0.00	30.153 
04:15	66.4	66.4	66.4	92	64.0	0	1	90	0.00	30.153 
04:20	66.4	66.4	66.4	93	64.3	0	1	90	0.00	30.153 
04:25	66.3	66.3	66.3	93	64.2	0	1	90	0.00	30.153 
04:30	66.3	66.3	66.3	93	64.2	0	0	---	0.00	30.153 
04:35	66.1	66.1	66.1	93	64.0	0	1	90	0.00	30.153 
04:40	66.1	66.1	66.1	93	64.0	0	1	90	0.00	30.153 
04:45	66.0	66.0	66.0	93	63.9	0	0	---	0.00	30.156 
04:50	65.8	65.8	65.8	93	63.7	0	0	---	0.00	30.156 
04:55	65.8	65.8	65.8	93	63.7	0	0	---	0.00	30.156 
05:00	65.8	65.8	65.8	93	63.7	0	0	---	0.00	30.161 
05:05	65.8	65.8	65.8	93	63.7	0	0	---	0.00	30.161 
05:10	65.8	65.8	65.8	94	64.0	0	1	90	0.00	30.161 
05:15	66.0	66.0	66.0	94	64.2	0	0	---	0.00	30.166 
05:20	66.0	66.0	66.0	94	64.2	0	1	90	0.00	30.166 
05:25	66.0	66.0	66.0	94	64.2	0	2	90	0.00	30.166 
05:30	66.0	66.0	66.0	94	64.2	0	1	90	0.00	30.169 
05:35	66.0	66.0	66.0	94	64.2	0	0	---	0.00	30.169 
05:40	66.0	66.0	66.0	94	64.2	0	0	---	0.00	30.169 
05:45	66.0	66.0	66.0	94	64.2	0	1	90	0.00	30.180 
05:50	66.0	66.0	66.0	94	64.2	0	1	90	0.00	30.180 
05:55	66.0	66.0	66.0	94	64.2	0	0	---	0.00	30.180 
06:00	65.8	65.8	65.8	94	64.0	0	0	---	0.00	30.180 
06:05	65.8	65.8	65.8	94	64.0	0	0	---	0.00	30.180 
06:10	65.8	65.8	65.8	94	64.0	0	2	90	0.00	30.180 
06:15	66.0	66.0	66.0	94	64.2	0	1	90	0.00	30.179 
06:20	66.0	66.0	66.0	94	64.2	0	1	90	0.00	30.179 
06:25	66.0	66.0	66.0	94	64.2	0	0	---	0.00	30.179 
06:30	66.0	66.0	66.0	95	64.5	0	2	90	0.00	30.183 
06:35	66.1	66.1	66.1	94	64.3	1	3	90	0.00	30.183 
06:40	66.1	66.1	66.1	94	64.3	0	1	90	0.00	30.183 
06:45	66.1	66.1	66.1	94	64.3	0	3	90	0.00	30.190 
06:50	66.1	66.1	66.1	94	64.3	0	1	68	0.00	30.190 
06:55	66.1	66.1	66.1	94	64.3	0	3	68	0.00	30.190 
07:00	66.3	66.3	66.3	94	64.5	0	1	68	0.00	30.196 
07:05	66.3	66.3	66.3	94	64.5	0	2	68	0.00	30.196 
07:10	66.4	66.4	66.4	94	64.6	0	1	68	0.00	30.196 
07:15	66.6	66.6	66.6	94	64.8	0	2	68	0.00	30.197 
07:20	66.8	66.8	66.8	94	65.0	1	3	68	0.00	30.197 
07:25	66.9	66.9	66.9	94	65.1	1	4	68	0.00	30.197 
07:30	67.4	67.4	67.4	94	65.6	0	3	68	0.00	30.200 
07:35	67.8	67.8	67.8	93	65.7	1	4	68	0.00	30.200 
07:40	68.1	68.1	68.1	92	65.7	1	4	68	0.00	30.200 
07:45	68.6	68.6	68.6	92	66.2	0	2	68	0.00	30.200 
07:50	68.9	68.9	68.9	91	66.2	1	4	68	0.00	30.200 
07:55	69.4	69.4	69.4	89	66.0	1	4	68	0.00	30.200 
08:00	69.8	69.8	69.8	89	66.4	1	4	68	0.00	30.197 
08:05	69.9	69.9	69.9	88	66.2	1	7	90	0.00	30.197 
08:10	70.3	70.3	70.3	87	66.2	1	5	112	0.00	30.197 
08:15	70.3	70.3	70.3	86	65.9	2	6	112	0.00	30.198 
08:20	70.6	70.6	70.6	86	66.2	2	6	90	0.00	30.198 
08:25	71.1	71.1	71.1	85	66.4	1	4	90	0.00	30.198 
08:30	71.6	71.6	71.6	84	66.5	1	5	90	0.00	30.199 
08:35	72.0	72.0	72.0	84	66.9	1	4	90	0.00	30.199 
08:40	72.5	72.5	72.5	84	67.4	0	3	90	0.00	30.199 
08:45	73.0	73.0	73.0	82	67.2	1	5	90	0.00	30.199 
08:50	73.0	73.0	73.0	82	67.2	2	5	112	0.00	30.199 
08:55	73.3	73.3	73.3	82	67.5	2	5	90	0.00	30.199 
09:00	73.7	73.7	73.7	81	67.5	1	3	90	0.00	30.196 
09:05	74.0	74.0	74.0	80	67.4	1	4	90	0.00	30.196 
09:10	74.6	74.6	74.6	80	68.0	1	3	90	0.00	30.196 
09:15	75.1	75.1	76.0	78	67.8	1	4	90	0.00	30.200 
09:20	75.3	75.3	76.2	78	68.0	2	4	90	0.00	30.200 
09:25	75.4	75.4	76.2	79	68.4	1	3	90	0.00	30.200 
09:30	75.8	75.8	76.9	78	68.4	1	3	90	0.00	30.198 
09:35	76.1	76.1	77.4	77	68.3	2	5	90	0.00	30.198 
09:40	76.3	76.3	77.6	77	68.5	2	3	90	0.00	30.198 
09:45	76.7	76.7	78.2	77	68.9	1	4	45	0.00	30.195 
09:50	77.4	77.4	79.3	76	69.2	0	3	68	0.00	30.195 
09:55	78.1	78.1	80.3	73	68.7	1	5	68	0.00	30.195 
10:00	78.5	78.5	80.9	73	69.1	1	3	68	0.00	30.192 
10:05	79.2	79.2	81.8	71	69.0	1	3	68	0.00	30.192 
10:10	79.6	79.6	82.4	71	69.3	1	3	68	0.00	30.192 
10:15	79.9	79.9	82.9	71	69.6	1	4	68	0.00	30.192 
10:20	80.3	80.3	83.3	69	69.2	0	4	68	0.00	30.192 
10:25	80.7	80.7	83.8	68	69.1	1	3	68	0.00	30.192 
10:30	80.5	80.5	83.9	71	70.2	2	4	68	0.00	30.189 
10:35	80.7	80.7	84.1	70	70.0	1	3	68	0.00	30.189 
10:40	81.1	81.1	84.6	69	69.9	1	3	68	0.00	30.189 
10:45	81.6	81.6	85.5	69	70.4	1	4	68	0.00	30.191 
10:50	81.6	81.6	85.5	69	70.4	1	4	90	0.00	30.191 
10:55	81.8	81.8	85.5	67	69.7	2	5	90	0.00	30.191 
11:00	82.2	82.2	85.9	66	69.7	0	4	90	0.00	30.193 
11:05	82.6	82.6	87.1	68	70.9	1	4	90	0.00	30.193 
11:10	82.6	82.6	86.6	66	70.1	1	5	90	0.00	30.193 
11:15	83.0	83.0	87.6	67	70.9	0	2	90	0.00	30.193 
11:20	83.4	83.4	88.1	66	70.8	2	4	90	0.00	30.193 
11:25	83.2	83.2	87.2	64	69.7	2	5	90	0.00	30.193 
11:30	83.4	83.4	88.1	66	70.8	1	5	90	0.00	30.193 
11:35	83.6	83.6	88.2	65	70.6	1	6	90	0.00	30.193 
11:40	83.8	83.8	87.7	62	69.4	2	4	90	0.00	30.193 
11:45	83.8	83.8	87.5	61	68.9	2	9	112	0.00	30.191 
11:50	84.0	84.0	88.1	62	69.5	1	4	112	0.00	30.191 
11:55	84.3	84.3	88.0	60	68.9	1	6	112	0.00	30.191 
12:00	84.5	84.5	89.0	62	70.0	2	5	90	0.00	30.186 
12:05	84.7	84.7	89.0	61	69.7	1	4	112	0.00	30.186 
12:10	85.1	85.1	89.8	61	70.1	2	6	90	0.00	30.186 
12:15	85.3	85.3	89.5	59	69.3	2	5	90	0.00	30.189 
12:20	85.3	85.3	89.5	59	69.3	2	5	90	0.00	30.189 
12:25	85.5	85.5	90.2	60	70.0	1	5	135	0.00	30.189 
12:30	85.7	85.7	89.9	58	69.2	2	5	90	0.00	30.188 
12:35	85.3	85.3	89.2	58	68.8	2	9	90	0.00	30.188 
12:40	85.7	85.7	89.5	57	68.7	1	4	90	0.00	30.188 
12:45	85.5	85.5	89.5	58	69.0	2	6	90	0.00	30.189 
12:50	85.7	85.7	89.9	58	69.2	1	6	90	0.00	30.189 
12:55	85.7	85.7	89.5	57	68.7	2	4	68	0.00	30.189 
13:00	86.1	86.1	90.9	59	70.1	1	4	90	0.00	30.185 
13:05	86.7	86.7	91.0	56	69.1	1	4	90	0.00	30.185 
13:10	86.7	86.7	91.7	58	70.1	2	5	90	0.00	30.185 
13:15	86.7	86.7	91.0	56	69.1	1	4	90	0.00	30.184 
13:20	86.5	86.5	89.9	54	67.8	1	4	90	0.00	30.184 
13:25	86.5	86.5	91.0	57	69.4	2	10	90	0.00	30.184 
13:30	86.5	86.5	90.6	56	68.9	2	4	90	0.00	30.182 
13:35	86.1	86.1	89.6	55	68.0	2	7	90	0.00	30.182 
13:40	85.5	85.5	88.9	56	68.0	2	6	90	0.00	30.182 
13:45	85.7	85.7	89.2	56	68.2	1	6	90	0.00	30.182 
13:50	85.9	85.9	89.9	57	68.9	2	5	112	0.00	30.182 
13:55	85.9	85.9	89.6	56	68.3	1	5	90	0.00	30.182 
14:00	85.9	85.9	90.2	58	69.4	1	4	90	0.00	30.178 
14:05	86.3	86.3	91.3	59	70.2	2	7	90	0.00	30.178 
14:10	86.7	86.7	91.7	58	70.1	1	7	90	0.00	30.178 
14:15	87.0	87.0	91.5	56	69.4	2	5	90	0.00	30.178 
14:20	87.0	87.0	91.9	57	69.9	1	6	90	0.00	30.178 
14:25	87.2	87.2	92.7	58	70.6	1	3	90	0.00	30.178 
14:30	87.4	87.4	91.9	55	69.2	2	5	90	0.00	30.179 
14:35	87.0	87.0	91.9	57	69.9	2	6	112	0.00	30.179 
14:40	87.0	87.0	91.5	56	69.4	3	5	90	0.00	30.179 
14:45	87.2	87.2	91.1	54	68.5	2	5	90	0.00	30.177 
14:50	87.2	87.2	91.5	55	69.0	2	6	90	0.00	30.177 
14:55	86.7	86.7	91.7	58	70.1	2	4	90	0.00	30.177 
15:00	87.0	87.0	91.5	56	69.4	2	7	68	0.00	30.178 
15:05	87.4	87.4	93.0	58	70.8	2	6	90	0.00	30.178 
15:10	87.2	87.2	91.9	56	69.6	3	6	90	0.00	30.178 
15:15	86.7	86.7	91.7	58	70.1	1	5	112	0.00	30.176 
15:20	87.4	87.4	91.9	55	69.2	2	5	90	0.00	30.176 
15:25	88.0	88.0	92.6	54	69.2	1	2	90	0.00	30.176 
15:30	87.6	87.6	92.6	56	69.9	3	6	90	0.00	30.178 
15:35	86.7	86.7	91.3	57	69.6	3	5	90	0.00	30.178 
15:40	86.5	86.5	91.3	58	69.9	2	5	90	0.00	30.178 
15:45	86.7	86.7	91.3	57	69.6	2	7	90	0.00	30.176 
15:50	87.2	87.2	91.5	55	69.0	2	5	90	0.00	30.176 
15:55	87.8	87.8	92.2	54	69.0	1	4	90	0.00	30.176 
16:00	88.0	88.0	92.6	54	69.2	2	4	90	0.00	30.173 
16:05	87.6	87.6	91.8	54	68.9	1	4	90	0.00	30.173 
16:10	87.2	87.2	91.5	55	69.0	1	5	90	0.00	30.173 
16:15	86.7	86.7	90.6	55	68.6	2	7	90	0.00	30.173 
16:20	86.5	86.5	90.6	56	68.9	1	3	90	0.00	30.173 
16:25	86.3	86.3	89.9	55	68.2	1	4	90	0.00	30.173 
16:30	86.1	86.1	89.9	56	68.5	2	4	90	0.00	30.170 
16:35	86.3	86.3	90.9	58	69.7	0	2	90	0.00	30.170 
16:40	86.5	86.5	91.0	57	69.4	1	4	90	0.00	30.170 
16:45	86.7	86.7	91.7	58	70.1	2	6	90	0.00	30.168 
16:50	86.5	86.5	91.0	57	69.4	2	5	90	0.00	30.168 
16:55	86.1	86.1	90.6	58	69.6	2	5	90	0.00	30.168 
17:00	85.9	85.9	90.6	59	69.9	1	3	90	0.00	30.169 
17:05	86.1	86.1	91.3	60	70.6	2	4	90	0.00	30.169 
17:10	86.3	86.3	90.6	57	69.2	2	6	90	0.00	30.169 
17:15	86.5	86.5	92.1	60	70.9	2	6	90	0.00	30.170 
17:20	87.0	87.0	92.3	58	70.4	2	9	90	0.00	30.170 
17:25	87.2	87.2	93.5	60	71.6	1	4	112	0.00	30.170 
17:30	87.0	87.0	92.7	59	70.9	3	7	112	0.00	30.173 
17:35	86.3	86.3	92.1	61	71.2	3	5	112	0.00	30.173 
17:40	85.5	85.5	91.6	64	71.9	3	9	112	0.00	30.173 
17:45	84.5	84.5	89.9	65	71.4	2	5	90	0.00	30.175 
17:50	84.0	84.0	89.5	67	71.8	1	4	90	0.00	30.175 
17:55	83.8	83.8	88.8	66	71.2	2	6	90	0.00	30.175 
18:00	83.8	83.8	89.1	67	71.6	1	4	112	0.00	30.169 
18:05	84.1	84.1	90.0	68	72.4	1	4	112	0.00	30.169 
18:10	84.5	84.5	90.2	66	71.9	1	5	112	0.00	30.169 
18:15	84.5	84.5	89.9	65	71.4	1	5	135	0.00	30.169 
18:20	84.5	84.5	89.9	65	71.4	2	5	90	0.00	30.169 
18:25	84.5	84.5	90.2	66	71.9	1	5	90	0.00	30.169 
18:30	84.3	84.3	89.5	65	71.2	3	9	90	0.00	30.166 
18:35	84.0	84.0	89.2	66	71.4	2	9	90	0.00	30.166 
18:40	83.6	83.6	88.7	67	71.5	2	4	90	0.00	30.166 
18:45	83.4	83.4	88.4	67	71.3	1	5	90	0.00	30.168 
18:50	83.2	83.2	88.2	68	71.5	1	5	90	0.00	30.168 
18:55	83.2	83.2	88.2	68	71.5	2	4	112	0.00	30.168 
19:00	83.2	83.2	88.0	67	71.1	2	5	112	0.00	30.170 
19:05	83.2	83.2	88.2	68	71.5	1	5	112	0.00	30.170 
19:10	83.2	83.2	88.2	68	71.5	1	5	90	0.00	30.170 
19:15	83.2	83.2	88.2	68	71.5	1	5	112	0.00	30.167 
19:20	83.2	83.2	88.2	68	71.5	1	6	112	0.00	30.167 
19:25	83.2	83.2	88.2	68	71.5	2	6	112	0.00	30.167 
19:30	83.0	83.0	88.1	69	71.8	2	5	112	0.00	30.170 
19:35	82.8	82.8	87.5	68	71.1	1	6	112	0.00	30.170 
19:40	82.6	82.6	87.1	68	70.9	1	5	90	0.00	30.170 
19:45	82.4	82.4	86.7	68	70.8	1	4	90	0.00	30.171 
19:50	82.2	82.2	86.6	69	71.0	1	4	90	0.00	30.171 
19:55	82.2	82.2	86.6	69	71.0	1	4	90	0.00	30.171 
20:00	82.4	82.4	87.0	69	71.2	0	2	90	0.00	30.171 
20:05	82.4	82.4	87.0	69	71.2	0	3	90	0.00	30.171 
20:10	82.4	82.4	87.0	69	71.2	0	2	90	0.00	30.171 
20:15	82.4	82.4	87.2	70	71.6	0	1	90	0.00	30.167 
20:20	82.4	82.4	87.4	71	72.0	0	1	90	0.00	30.167 
20:25	82.4	82.4	87.4	71	72.0	0	0	---	0.00	30.167 
20:30	82.2	82.2	87.0	71	71.8	1	4	90	0.00	30.173 
20:35	82.2	82.2	87.0	71	71.8	0	2	90	0.00	30.173 
20:40	82.2	82.2	87.0	71	71.8	1	4	90	0.00	30.173 
20:45	82.0	82.0	86.9	72	72.1	0	2	90	0.00	30.175 
20:50	81.8	81.8	86.5	72	71.9	0	2	90	0.00	30.175 
20:55	81.6	81.6	86.3	73	72.1	0	0	---	0.00	30.175 
21:00	81.4	81.4	85.9	73	71.9	0	0	---	0.00	30.177 
21:05	81.2	81.2	85.7	74	72.1	0	0	---	0.00	30.177 
21:10	81.1	81.1	85.5	74	72.0	0	0	---	0.00	30.177 
21:15	80.9	80.9	85.3	75	72.2	0	0	---	0.00	30.175 
21:20	80.5	80.5	84.5	75	71.8	0	0	---	0.00	30.175 
21:25	80.1	80.1	83.9	76	71.8	0	0	---	0.00	30.175 
21:30	79.9	79.9	83.6	77	72.0	0	0	---	0.00	30.177 
21:35	79.8	79.8	83.4	77	71.9	0	0	---	0.00	30.177 
21:40	79.4	79.4	82.8	78	71.9	0	0	---	0.00	30.177 
21:45	79.2	79.2	82.4	78	71.7	0	0	---	0.00	30.186 
21:50	79.0	79.0	82.1	79	71.9	0	0	---	0.00	30.186 
21:55	78.8	78.8	81.7	79	71.7	0	0	---	0.00	30.186 
22:00	78.6	78.6	81.4	80	71.9	0	0	---	0.00	30.190 
22:05	78.5	78.5	81.2	80	71.8	0	0	---	0.00	30.190 
22:10	78.5	78.5	81.3	81	72.2	0	2	90	0.00	30.190 
22:15	78.5	78.5	81.3	81	72.2	0	2	90	0.00	30.191 
22:20	78.5	78.5	81.3	81	72.2	0	1	90	0.00	30.191 
22:25	78.3	78.3	80.9	81	72.0	0	1	90	0.00	30.191 
22:30	78.3	78.3	80.9	81	72.0	0	2	90	0.00	30.195 
22:35	78.3	78.3	80.9	81	72.0	0	1	90	0.00	30.195 
22:40	78.1	78.1	80.5	81	71.8	0	0	---	0.00	30.195 
22:45	77.9	77.9	80.2	82	71.9	0	0	---	0.00	30.201 
22:50	77.9	77.9	80.2	82	71.9	0	1	90	0.00	30.201 
22:55	77.7	77.7	79.8	82	71.8	0	1	90	0.00	30.201 
23:00	77.6	77.6	79.6	82	71.7	0	1	90	0.00	30.201 
23:05	77.4	77.4	79.2	82	71.5	0	0	---	0.00	30.201 
23:10	77.4	77.4	79.2	82	71.5	0	1	90	0.00	30.201 
23:15	77.2	77.2	78.9	82	71.3	0	1	90	0.00	30.202 
23:20	77.2	77.2	78.9	82	71.3	0	2	90	0.00	30.202 
23:25	77.2	77.2	78.9	82	71.3	0	1	90	0.00	30.202 
23:30	77.0	77.0	78.5	82	71.1	0	1	90	0.00	30.198 
23:35	76.8	76.8	78.1	83	71.2	0	1	90	0.00	30.198 
23:40	76.8	76.8	78.1	83	71.2	0	2	90	0.00	30.198 
23:45	76.8	76.8	78.1	83	71.2	0	1	90	0.00	30.198 
23:50	76.7	76.7	77.9	83	71.1	0	1	90	0.00	30.198 
23:55	76.7	76.7	77.9	83	71.1	0	2	90	0.00	30.198 

CoCoRaHS
IN-AL-39
A2 Web Hosting
Creative Commons License
GoDaddy
search engine by freefind advanced

loaded 2018-11-12 19:38:49 • last modified 2010-11-18 10:43:29
Privacy PolicyDisclaimer
• wx.awcolley.com is powered by PmWiki v.2002016 •
• all content (unless otherwise noted) © 2018 A W Colley